Search for airport 
image banner adimage banner ad
image banner ad

VAKS - Keshod

Located in Keshod, India

ICAO - VAKS, IATA - IXK

Data provided by Airmate  

General information

Coordinates: N21°18'54" E70°16'9"
Elevation is 167 feet MSL.
 
Rated:
View ratings: [VIEW]


View others Airports in Gujarat

Operational data

Open for public use
Current time UTC:
Current local time:
Weather at : VAPR - Porbandar ( 73 km )
METAR: VAPR 221100Z 35008G18KT 6000 SCT080 33/04 Q1014
TAF: TAF VAPR 221100Z 2212/2221 35008KT 6000 NSC
View NOTAMs / SUP AIP / TFR affecting this airport [VIEW]
Communications frequencies: [VIEW]

Runways:

RWY identifierQFULength (ft)Width (ft)SurfaceLDA (ft)
0550°4498148ASP
23230°4498148

Airport contact information

Address: Keshod India

Satellite view of VAKS